sensor_id;sensor_type;location;lat;lon;timestamp;P1;durP1;ratioP1;P2;durP2;ratioP2
19347;SDS011;9810;52.480;9.806;2022-09-09T00:01:10;3.93;;;3.00;;
19347;SDS011;9810;52.480;9.806;2022-09-09T00:03:53;4.03;;;2.90;;
19347;SDS011;9810;52.480;9.806;2022-09-09T00:06:26;5.50;;;3.00;;
19347;SDS011;9810;52.480;9.806;2022-09-09T00:09:00;9.87;;;3.43;;
19347;SDS011;9810;52.480;9.806;2022-09-09T00:11:32;3.13;;;2.83;;
19347;SDS011;9810;52.480;9.806;2022-09-09T00:14:08;4.60;;;2.77;;
19347;SDS011;9810;52.480;9.806;2022-09-09T00:16:44;2.60;;;2.40;;
19347;SDS011;9810;52.480;9.806;2022-09-09T00:19:18;5.83;;;3.10;;
19347;SDS011;9810;52.480;9.806;2022-09-09T00:21:50;9.23;;;2.87;;
19347;SDS011;9810;52.480;9.806;2022-09-09T00:24:27;6.53;;;2.90;;
19347;SDS011;9810;52.480;9.806;2022-09-09T00:27:00;2.73;;;2.50;;
19347;SDS011;9810;52.480;9.806;2022-09-09T00:29:33;5.60;;;2.47;;
19347;SDS011;9810;52.480;9.806;2022-09-09T00:32:16;4.03;;;2.83;;
19347;SDS011;9810;52.480;9.806;2022-09-09T00:34:47;4.67;;;2.33;;
19347;SDS011;9810;52.480;9.806;2022-09-09T00:37:18;4.53;;;2.67;;
19347;SDS011;9810;52.480;9.806;2022-09-09T00:39:47;4.13;;;2.57;;
19347;SDS011;9810;52.480;9.806;2022-09-09T00:42:17;5.60;;;2.40;;
19347;SDS011;9810;52.480;9.806;2022-09-09T00:44:51;2.73;;;2.10;;
19347;SDS011;9810;52.480;9.806;2022-09-09T00:50:21;3.90;;;2.10;;
19347;SDS011;9810;52.480;9.806;2022-09-09T00:53:13;4.60;;;2.53;;
19347;SDS011;9810;52.480;9.806;2022-09-09T00:55:49;3.17;;;1.80;;
19347;SDS011;9810;52.480;9.806;2022-09-09T00:58:23;2.77;;;1.83;;
19347;SDS011;9810;52.480;9.806;2022-09-09T01:00:52;3.67;;;1.53;;
19347;SDS011;9810;52.480;9.806;2022-09-09T01:03:27;2.43;;;1.70;;
19347;SDS011;9810;52.480;9.806;2022-09-09T01:06:01;3.92;;;1.73;;
19347;SDS011;9810;52.480;9.806;2022-09-09T01:08:43;9.00;;;2.17;;
19347;SDS011;9810;52.480;9.806;2022-09-09T01:11:21;11.67;;;1.77;;
19347;SDS011;9810;52.480;9.806;2022-09-09T01:13:52;2.57;;;1.53;;
19347;SDS011;9810;52.480;9.806;2022-09-09T01:16:25;3.13;;;1.30;;
19347;SDS011;9810;52.480;9.806;2022-09-09T01:18:53;3.03;;;1.17;;
19347;SDS011;9810;52.480;9.806;2022-09-09T01:21:24;3.70;;;1.30;;
19347;SDS011;9810;52.480;9.806;2022-09-09T01:24:08;3.27;;;1.23;;
19347;SDS011;9810;52.480;9.806;2022-09-09T01:26:48;3.87;;;1.10;;
19347;SDS011;9810;52.480;9.806;2022-09-09T01:29:18;3.10;;;1.00;;
19347;SDS011;9810;52.480;9.806;2022-09-09T01:31:53;2.87;;;1.40;;
19347;SDS011;9810;52.480;9.806;2022-09-09T01:34:21;5.33;;;1.43;;
19347;SDS011;9810;52.480;9.806;2022-09-09T01:36:52;1.40;;;1.30;;
19347;SDS011;9810;52.480;9.806;2022-09-09T01:39:23;1.50;;;1.10;;
19347;SDS011;9810;52.480;9.806;2022-09-09T01:41:53;2.87;;;1.33;;
19347;SDS011;9810;52.480;9.806;2022-09-09T01:44:22;4.70;;;0.83;;
19347;SDS011;9810;52.480;9.806;2022-09-09T01:46:50;1.07;;;0.90;;
19347;SDS011;9810;52.480;9.806;2022-09-09T01:49:18;1.50;;;1.10;;
19347;SDS011;9810;52.480;9.806;2022-09-09T01:51:46;0.97;;;0.97;;
19347;SDS011;9810;52.480;9.806;2022-09-09T01:54:16;6.50;;;1.70;;
19347;SDS011;9810;52.480;9.806;2022-09-09T01:56:47;4.00;;;1.20;;
19347;SDS011;9810;52.480;9.806;2022-09-09T01:59:28;3.77;;;1.30;;
19347;SDS011;9810;52.480;9.806;2022-09-09T02:02:09;3.25;;;1.10;;
19347;SDS011;9810;52.480;9.806;2022-09-09T02:04:39;3.60;;;1.33;;
19347;SDS011;9810;52.480;9.806;2022-09-09T02:07:12;2.47;;;1.07;;
19347;SDS011;9810;52.480;9.806;2022-09-09T02:09:49;1.50;;;0.90;;
19347;SDS011;9810;52.480;9.806;2022-09-09T02:12:25;2.10;;;1.20;;
19347;SDS011;9810;52.480;9.806;2022-09-09T02:14:55;1.93;;;1.00;;
19347;SDS011;9810;52.480;9.806;2022-09-09T02:17:27;1.13;;;1.03;;
19347;SDS011;9810;52.480;9.806;2022-09-09T02:19:59;3.63;;;1.00;;
19347;SDS011;9810;52.480;9.806;2022-09-09T02:22:31;1.23;;;1.07;;
19347;SDS011;9810;52.480;9.806;2022-09-09T02:25:01;1.73;;;0.90;;
19347;SDS011;9810;52.480;9.806;2022-09-09T02:27:34;3.47;;;1.10;;
19347;SDS011;9810;52.480;9.806;2022-09-09T02:30:02;3.80;;;0.70;;
19347;SDS011;9810;52.480;9.806;2022-09-09T02:32:30;1.70;;;1.23;;
19347;SDS011;9810;52.480;9.806;2022-09-09T02:35:02;3.83;;;1.20;;
19347;SDS011;9810;52.480;9.806;2022-09-09T02:37:35;4.50;;;0.73;;
19347;SDS011;9810;52.480;9.806;2022-09-09T02:40:04;10.23;;;1.30;;
19347;SDS011;9810;52.480;9.806;2022-09-09T02:42:39;1.60;;;0.93;;
19347;SDS011;9810;52.480;9.806;2022-09-09T02:45:07;4.43;;;0.87;;
19347;SDS011;9810;52.480;9.806;2022-09-09T02:47:35;2.50;;;0.90;;
19347;SDS011;9810;52.480;9.806;2022-09-09T02:50:08;4.57;;;0.90;;
19347;SDS011;9810;52.480;9.806;2022-09-09T02:52:42;3.13;;;1.00;;
19347;SDS011;9810;52.480;9.806;2022-09-09T02:55:18;2.10;;;0.83;;
19347;SDS011;9810;52.480;9.806;2022-09-09T02:57:56;3.70;;;0.77;;
19347;SDS011;9810;52.480;9.806;2022-09-09T03:00:25;1.27;;;0.80;;
19347;SDS011;9810;52.480;9.806;2022-09-09T03:02:55;3.53;;;0.90;;
19347;SDS011;9810;52.480;9.806;2022-09-09T03:05:22;0.80;;;0.73;;
19347;SDS011;9810;52.480;9.806;2022-09-09T03:07:52;5.23;;;0.90;;
19347;SDS011;9810;52.480;9.806;2022-09-09T03:10:18;2.67;;;0.87;;
19347;SDS011;9810;52.480;9.806;2022-09-09T03:12:46;2.57;;;0.70;;
19347;SDS011;9810;52.480;9.806;2022-09-09T03:15:14;2.53;;;0.80;;
19347;SDS011;9810;52.480;9.806;2022-09-09T03:17:42;3.10;;;1.03;;
19347;SDS011;9810;52.480;9.806;2022-09-09T03:20:09;2.90;;;1.33;;
19347;SDS011;9810;52.480;9.806;2022-09-09T03:22:37;2.30;;;0.80;;
19347;SDS011;9810;52.480;9.806;2022-09-09T03:25:05;0.87;;;0.80;;
19347;SDS011;9810;52.480;9.806;2022-09-09T03:27:33;1.00;;;0.90;;
19347;SDS011;9810;52.480;9.806;2022-09-09T03:30:00;3.60;;;1.00;;
19347;SDS011;9810;52.480;9.806;2022-09-09T03:32:30;5.30;;;0.83;;
19347;SDS011;9810;52.480;9.806;2022-09-09T03:34:57;6.87;;;1.17;;
19347;SDS011;9810;52.480;9.806;2022-09-09T03:37:24;1.63;;;0.90;;
19347;SDS011;9810;52.480;9.806;2022-09-09T03:39:52;4.67;;;1.00;;
19347;SDS011;9810;52.480;9.806;2022-09-09T03:42:20;1.40;;;1.00;;
19347;SDS011;9810;52.480;9.806;2022-09-09T03:44:48;2.90;;;0.90;;
19347;SDS011;9810;52.480;9.806;2022-09-09T03:47:16;4.27;;;0.80;;
19347;SDS011;9810;52.480;9.806;2022-09-09T03:49:45;5.07;;;0.80;;
19347;SDS011;9810;52.480;9.806;2022-09-09T03:52:13;4.37;;;1.03;;
19347;SDS011;9810;52.480;9.806;2022-09-09T03:54:41;6.73;;;1.40;;
19347;SDS011;9810;52.480;9.806;2022-09-09T03:57:08;2.50;;;1.17;;
19347;SDS011;9810;52.480;9.806;2022-09-09T03:59:37;2.47;;;1.17;;
19347;SDS011;9810;52.480;9.806;2022-09-09T04:02:04;3.60;;;1.03;;
19347;SDS011;9810;52.480;9.806;2022-09-09T04:04:31;4.50;;;1.27;;
19347;SDS011;9810;52.480;9.806;2022-09-09T04:07:00;5.53;;;1.50;;
19347;SDS011;9810;52.480;9.806;2022-09-09T04:09:27;2.00;;;1.07;;
19347;SDS011;9810;52.480;9.806;2022-09-09T04:11:54;1.90;;;1.27;;
19347;SDS011;9810;52.480;9.806;2022-09-09T04:14:21;2.90;;;1.27;;
19347;SDS011;9810;52.480;9.806;2022-09-09T04:16:48;2.17;;;1.00;;
19347;SDS011;9810;52.480;9.806;2022-09-09T04:19:15;2.03;;;1.00;;
19347;SDS011;9810;52.480;9.806;2022-09-09T04:21:42;1.03;;;0.90;;
19347;SDS011;9810;52.480;9.806;2022-09-09T04:24:11;3.60;;;1.20;;
19347;SDS011;9810;52.480;9.806;2022-09-09T04:26:38;3.13;;;0.93;;
19347;SDS011;9810;52.480;9.806;2022-09-09T04:29:05;1.90;;;1.10;;
19347;SDS011;9810;52.480;9.806;2022-09-09T04:31:32;2.20;;;1.27;;
19347;SDS011;9810;52.480;9.806;2022-09-09T04:34:00;2.97;;;2.03;;
19347;SDS011;9810;52.480;9.806;2022-09-09T04:36:30;2.58;;;1.05;;
19347;SDS011;9810;52.480;9.806;2022-09-09T04:38:58;1.33;;;1.00;;
19347;SDS011;9810;52.480;9.806;2022-09-09T04:41:28;3.30;;;1.30;;
19347;SDS011;9810;52.480;9.806;2022-09-09T04:43:56;5.83;;;1.03;;
19347;SDS011;9810;52.480;9.806;2022-09-09T04:46:24;2.63;;;1.20;;
19347;SDS011;9810;52.480;9.806;2022-09-09T04:48:52;5.10;;;1.27;;
19347;SDS011;9810;52.480;9.806;2022-09-09T04:51:19;5.67;;;1.40;;
19347;SDS011;9810;52.480;9.806;2022-09-09T04:53:47;2.97;;;1.37;;
19347;SDS011;9810;52.480;9.806;2022-09-09T04:56:16;2.57;;;1.13;;
19347;SDS011;9810;52.480;9.806;2022-09-09T04:58:45;3.70;;;1.47;;
19347;SDS011;9810;52.480;9.806;2022-09-09T05:01:13;2.57;;;1.47;;
19347;SDS011;9810;52.480;9.806;2022-09-09T05:03:42;1.67;;;1.00;;
19347;SDS011;9810;52.480;9.806;2022-09-09T05:06:11;1.37;;;1.03;;
19347;SDS011;9810;52.480;9.806;2022-09-09T05:08:39;3.70;;;1.00;;
19347;SDS011;9810;52.480;9.806;2022-09-09T05:11:12;1.70;;;1.07;;
19347;SDS011;9810;52.480;9.806;2022-09-09T05:13:41;3.47;;;0.90;;
19347;SDS011;9810;52.480;9.806;2022-09-09T05:16:10;4.93;;;1.40;;
19347;SDS011;9810;52.480;9.806;2022-09-09T05:18:38;2.27;;;1.20;;
19347;SDS011;9810;52.480;9.806;2022-09-09T05:21:07;5.67;;;1.13;;
19347;SDS011;9810;52.480;9.806;2022-09-09T05:23:35;1.70;;;1.17;;
19347;SDS011;9810;52.480;9.806;2022-09-09T05:26:03;4.50;;;1.30;;
19347;SDS011;9810;52.480;9.806;2022-09-09T05:28:33;3.73;;;1.10;;
19347;SDS011;9810;52.480;9.806;2022-09-09T05:31:01;4.47;;;1.00;;
19347;SDS011;9810;52.480;9.806;2022-09-09T05:33:34;4.50;;;1.37;;
19347;SDS011;9810;52.480;9.806;2022-09-09T05:36:03;2.27;;;1.10;;
19347;SDS011;9810;52.480;9.806;2022-09-09T05:38:32;3.50;;;1.20;;
19347;SDS011;9810;52.480;9.806;2022-09-09T05:41:01;3.87;;;1.17;;
19347;SDS011;9810;52.480;9.806;2022-09-09T05:43:29;6.57;;;1.47;;
19347;SDS011;9810;52.480;9.806;2022-09-09T05:46:01;5.90;;;1.40;;
19347;SDS011;9810;52.480;9.806;2022-09-09T05:48:29;12.47;;;1.83;;
19347;SDS011;9810;52.480;9.806;2022-09-09T05:50:58;6.73;;;1.50;;
19347;SDS011;9810;52.480;9.806;2022-09-09T05:53:26;2.63;;;1.08;;
19347;SDS011;9810;52.480;9.806;2022-09-09T05:56:00;4.17;;;1.23;;
19347;SDS011;9810;52.480;9.806;2022-09-09T05:58:28;4.20;;;1.20;;
19347;SDS011;9810;52.480;9.806;2022-09-09T06:01:03;4.13;;;1.60;;
19347;SDS011;9810;52.480;9.806;2022-09-09T06:03:31;6.90;;;2.00;;
19347;SDS011;9810;52.480;9.806;2022-09-09T06:06:01;7.00;;;1.70;;
19347;SDS011;9810;52.480;9.806;2022-09-09T06:08:31;3.33;;;1.40;;
19347;SDS011;9810;52.480;9.806;2022-09-09T06:11:00;3.37;;;1.53;;
19347;SDS011;9810;52.480;9.806;2022-09-09T06:13:29;2.60;;;1.73;;
19347;SDS011;9810;52.480;9.806;2022-09-09T06:15:57;6.77;;;1.40;;
19347;SDS011;9810;52.480;9.806;2022-09-09T06:18:25;2.73;;;1.47;;
19347;SDS011;9810;52.480;9.806;2022-09-09T06:20:53;8.57;;;1.63;;
19347;SDS011;9810;52.480;9.806;2022-09-09T06:23:23;6.17;;;1.70;;
19347;SDS011;9810;52.480;9.806;2022-09-09T06:25:51;7.30;;;1.53;;
19347;SDS011;9810;52.480;9.806;2022-09-09T06:28:18;4.43;;;1.80;;
19347;SDS011;9810;52.480;9.806;2022-09-09T06:30:45;5.30;;;1.80;;
19347;SDS011;9810;52.480;9.806;2022-09-09T06:33:12;7.63;;;1.53;;
19347;SDS011;9810;52.480;9.806;2022-09-09T06:35:40;6.57;;;1.40;;
19347;SDS011;9810;52.480;9.806;2022-09-09T06:38:07;4.90;;;1.50;;
19347;SDS011;9810;52.480;9.806;2022-09-09T06:40:36;4.40;;;1.53;;
19347;SDS011;9810;52.480;9.806;2022-09-09T06:43:04;6.37;;;1.50;;
19347;SDS011;9810;52.480;9.806;2022-09-09T06:45:32;6.43;;;1.63;;
19347;SDS011;9810;52.480;9.806;2022-09-09T06:48:01;3.70;;;1.30;;
19347;SDS011;9810;52.480;9.806;2022-09-09T06:50:29;3.27;;;1.07;;
19347;SDS011;9810;52.480;9.806;2022-09-09T06:52:56;2.80;;;1.27;;
19347;SDS011;9810;52.480;9.806;2022-09-09T06:55:23;3.27;;;1.33;;
19347;SDS011;9810;52.480;9.806;2022-09-09T06:57:51;3.47;;;1.30;;
19347;SDS011;9810;52.480;9.806;2022-09-09T07:00:18;2.20;;;1.30;;
19347;SDS011;9810;52.480;9.806;2022-09-09T07:02:46;4.47;;;1.20;;
19347;SDS011;9810;52.480;9.806;2022-09-09T07:05:14;4.80;;;1.53;;
19347;SDS011;9810;52.480;9.806;2022-09-09T07:07:41;4.40;;;1.47;;
19347;SDS011;9810;52.480;9.806;2022-09-09T07:10:09;2.50;;;1.67;;
19347;SDS011;9810;52.480;9.806;2022-09-09T07:12:36;4.28;;;1.75;;
19347;SDS011;9810;52.480;9.806;2022-09-09T07:15:06;2.00;;;1.30;;
19347;SDS011;9810;52.480;9.806;2022-09-09T07:17:34;4.23;;;1.37;;
19347;SDS011;9810;52.480;9.806;2022-09-09T07:20:01;6.60;;;1.77;;
19347;SDS011;9810;52.480;9.806;2022-09-09T07:22:29;3.10;;;1.00;;
19347;SDS011;9810;52.480;9.806;2022-09-09T07:24:57;4.00;;;1.30;;
19347;SDS011;9810;52.480;9.806;2022-09-09T07:27:24;5.27;;;1.10;;
19347;SDS011;9810;52.480;9.806;2022-09-09T07:29:51;4.67;;;0.87;;
19347;SDS011;9810;52.480;9.806;2022-09-09T07:32:20;3.30;;;1.30;;
19347;SDS011;9810;52.480;9.806;2022-09-09T07:34:48;5.90;;;1.40;;
19347;SDS011;9810;52.480;9.806;2022-09-09T07:37:15;1.97;;;1.13;;
19347;SDS011;9810;52.480;9.806;2022-09-09T07:39:43;3.37;;;1.47;;
19347;SDS011;9810;52.480;9.806;2022-09-09T07:42:11;2.37;;;1.10;;
19347;SDS011;9810;52.480;9.806;2022-09-09T07:44:41;4.40;;;1.47;;
19347;SDS011;9810;52.480;9.806;2022-09-09T07:47:08;3.63;;;1.60;;
19347;SDS011;9810;52.480;9.806;2022-09-09T07:49:37;3.23;;;1.00;;
19347;SDS011;9810;52.480;9.806;2022-09-09T07:52:04;4.97;;;1.30;;
19347;SDS011;9810;52.480;9.806;2022-09-09T07:54:32;5.67;;;1.20;;
19347;SDS011;9810;52.480;9.806;2022-09-09T07:56:59;3.75;;;0.98;;
19347;SDS011;9810;52.480;9.806;2022-09-09T07:59:28;3.53;;;1.00;;
19347;SDS011;9810;52.480;9.806;2022-09-09T08:01:56;3.15;;;1.05;;
19347;SDS011;9810;52.480;9.806;2022-09-09T08:04:23;2.63;;;1.02;;
19347;SDS011;9810;52.480;9.806;2022-09-09T08:06:55;2.83;;;0.85;;
19347;SDS011;9810;52.480;9.806;2022-09-09T08:09:23;2.78;;;0.80;;
19347;SDS011;9810;52.480;9.806;2022-09-09T08:11:53;2.78;;;0.77;;
19347;SDS011;9810;52.480;9.806;2022-09-09T08:14:21;5.60;;;1.08;;
19347;SDS011;9810;52.480;9.806;2022-09-09T08:16:49;4.07;;;1.05;;
19347;SDS011;9810;52.480;9.806;2022-09-09T08:19:18;3.30;;;0.90;;
19347;SDS011;9810;52.480;9.806;2022-09-09T08:21:45;4.30;;;0.80;;
19347;SDS011;9810;52.480;9.806;2022-09-09T08:24:15;6.53;;;1.30;;
19347;SDS011;9810;52.480;9.806;2022-09-09T08:26:45;3.65;;;1.23;;
19347;SDS011;9810;52.480;9.806;2022-09-09T08:29:14;4.35;;;1.05;;
19347;SDS011;9810;52.480;9.806;2022-09-09T08:31:42;1.38;;;0.80;;
19347;SDS011;9810;52.480;9.806;2022-09-09T08:34:11;2.70;;;0.77;;
19347;SDS011;9810;52.480;9.806;2022-09-09T08:36:39;1.52;;;0.70;;
19347;SDS011;9810;52.480;9.806;2022-09-09T08:39:09;2.20;;;0.43;;
19347;SDS011;9810;52.480;9.806;2022-09-09T08:41:52;1.17;;;0.50;;
19347;SDS011;9810;52.480;9.806;2022-09-09T08:44:50;3.33;;;1.08;;
19347;SDS011;9810;52.480;9.806;2022-09-09T08:47:29;6.82;;;0.90;;
19347;SDS011;9810;52.480;9.806;2022-09-09T08:50:13;2.55;;;0.75;;
19347;SDS011;9810;52.480;9.806;2022-09-09T08:52:49;2.85;;;0.90;;
19347;SDS011;9810;52.480;9.806;2022-09-09T08:55:22;2.17;;;0.60;;
19347;SDS011;9810;52.480;9.806;2022-09-09T08:57:56;1.77;;;0.70;;
19347;SDS011;9810;52.480;9.806;2022-09-09T09:00:27;2.70;;;0.75;;
19347;SDS011;9810;52.480;9.806;2022-09-09T09:03:04;2.90;;;0.88;;
19347;SDS011;9810;52.480;9.806;2022-09-09T09:05:37;3.17;;;0.60;;
19347;SDS011;9810;52.480;9.806;2022-09-09T09:08:16;2.45;;;0.70;;
19347;SDS011;9810;52.480;9.806;2022-09-09T09:10:52;2.72;;;0.80;;
19347;SDS011;9810;52.480;9.806;2022-09-09T09:13:25;5.07;;;0.60;;
19347;SDS011;9810;52.480;9.806;2022-09-09T09:15:58;4.32;;;0.85;;
19347;SDS011;9810;52.480;9.806;2022-09-09T09:18:30;3.10;;;0.88;;
19347;SDS011;9810;52.480;9.806;2022-09-09T09:21:02;2.20;;;0.80;;
19347;SDS011;9810;52.480;9.806;2022-09-09T09:23:38;2.72;;;0.60;;
19347;SDS011;9810;52.480;9.806;2022-09-09T09:26:09;4.70;;;1.25;;
19347;SDS011;9810;52.480;9.806;2022-09-09T09:28:38;4.13;;;1.17;;
19347;SDS011;9810;52.480;9.806;2022-09-09T09:31:07;4.20;;;0.77;;
19347;SDS011;9810;52.480;9.806;2022-09-09T09:33:38;2.40;;;0.93;;
19347;SDS011;9810;52.480;9.806;2022-09-09T09:36:13;1.77;;;0.93;;
19347;SDS011;9810;52.480;9.806;2022-09-09T09:38:51;3.67;;;1.02;;
19347;SDS011;9810;52.480;9.806;2022-09-09T09:41:30;2.07;;;0.73;;
19347;SDS011;9810;52.480;9.806;2022-09-09T09:44:02;3.17;;;0.80;;
19347;SDS011;9810;52.480;9.806;2022-09-09T09:46:30;3.17;;;0.77;;
19347;SDS011;9810;52.480;9.806;2022-09-09T09:48:58;1.58;;;0.60;;
19347;SDS011;9810;52.480;9.806;2022-09-09T09:51:26;1.95;;;0.50;;
19347;SDS011;9810;52.480;9.806;2022-09-09T09:54:03;6.90;;;0.80;;
19347;SDS011;9810;52.480;9.806;2022-09-09T09:56:40;4.17;;;1.47;;
19347;SDS011;9810;52.480;9.806;2022-09-09T09:59:20;5.70;;;1.40;;
19347;SDS011;9810;52.480;9.806;2022-09-09T10:01:49;3.03;;;0.70;;
19347;SDS011;9810;52.480;9.806;2022-09-09T10:04:17;3.13;;;1.25;;
19347;SDS011;9810;52.480;9.806;2022-09-09T10:06:48;3.33;;;0.90;;
19347;SDS011;9810;52.480;9.806;2022-09-09T10:09:22;3.05;;;0.70;;
19347;SDS011;9810;52.480;9.806;2022-09-09T10:11:53;3.08;;;0.80;;
19347;SDS011;9810;52.480;9.806;2022-09-09T10:14:27;3.15;;;1.20;;
19347;SDS011;9810;52.480;9.806;2022-09-09T10:17:04;3.83;;;1.33;;
19347;SDS011;9810;52.480;9.806;2022-09-09T10:19:40;6.43;;;0.80;;
19347;SDS011;9810;52.480;9.806;2022-09-09T10:22:25;3.60;;;1.20;;
19347;SDS011;9810;52.480;9.806;2022-09-09T10:25:09;3.42;;;1.65;;
19347;SDS011;9810;52.480;9.806;2022-09-09T10:27:51;2.50;;;0.63;;
19347;SDS011;9810;52.480;9.806;2022-09-09T10:30:32;5.22;;;1.30;;
19347;SDS011;9810;52.480;9.806;2022-09-09T10:33:09;4.35;;;0.77;;
19347;SDS011;9810;52.480;9.806;2022-09-09T10:35:43;5.25;;;1.30;;
19347;SDS011;9810;52.480;9.806;2022-09-09T10:38:19;7.97;;;1.33;;
19347;SDS011;9810;52.480;9.806;2022-09-09T10:41:03;7.18;;;1.17;;
19347;SDS011;9810;52.480;9.806;2022-09-09T10:43:47;3.50;;;0.88;;
19347;SDS011;9810;52.480;9.806;2022-09-09T10:46:29;3.15;;;0.98;;
19347;SDS011;9810;52.480;9.806;2022-09-09T10:49:09;4.10;;;1.02;;
19347;SDS011;9810;52.480;9.806;2022-09-09T10:51:48;4.15;;;1.08;;
19347;SDS011;9810;52.480;9.806;2022-09-09T10:54:23;3.33;;;1.10;;
19347;SDS011;9810;52.480;9.806;2022-09-09T10:57:00;6.45;;;1.05;;
19347;SDS011;9810;52.480;9.806;2022-09-09T10:59:31;7.63;;;1.30;;
19347;SDS011;9810;52.480;9.806;2022-09-09T11:02:05;6.45;;;1.67;;
19347;SDS011;9810;52.480;9.806;2022-09-09T11:04:41;3.10;;;1.27;;
19347;SDS011;9810;52.480;9.806;2022-09-09T11:07:12;4.13;;;1.02;;
19347;SDS011;9810;52.480;9.806;2022-09-09T11:09:47;5.65;;;1.05;;
19347;SDS011;9810;52.480;9.806;2022-09-09T11:12:20;6.38;;;1.70;;
19347;SDS011;9810;52.480;9.806;2022-09-09T11:14:49;4.57;;;1.20;;
19347;SDS011;9810;52.480;9.806;2022-09-09T11:17:23;5.93;;;1.67;;
19347;SDS011;9810;52.480;9.806;2022-09-09T11:19:56;1.92;;;0.60;;
19347;SDS011;9810;52.480;9.806;2022-09-09T11:22:25;3.03;;;0.90;;
19347;SDS011;9810;52.480;9.806;2022-09-09T11:24:57;2.50;;;0.75;;
19347;SDS011;9810;52.480;9.806;2022-09-09T11:27:27;1.88;;;0.73;;
19347;SDS011;9810;52.480;9.806;2022-09-09T11:30:02;3.08;;;0.82;;
19347;SDS011;9810;52.480;9.806;2022-09-09T11:36:04;5.00;;;1.30;;
19347;SDS011;9810;52.480;9.806;2022-09-09T11:38:51;4.07;;;1.13;;
19347;SDS011;9810;52.480;9.806;2022-09-09T11:41:22;6.93;;;1.10;;
19347;SDS011;9810;52.480;9.806;2022-09-09T11:43:50;2.53;;;1.03;;
19347;SDS011;9810;52.480;9.806;2022-09-09T11:46:18;3.27;;;0.80;;
19347;SDS011;9810;52.480;9.806;2022-09-09T11:48:58;2.73;;;1.20;;
19347;SDS011;9810;52.480;9.806;2022-09-09T11:51:27;4.50;;;1.30;;
19347;SDS011;9810;52.480;9.806;2022-09-09T11:53:56;5.37;;;1.27;;
19347;SDS011;9810;52.480;9.806;2022-09-09T11:56:27;4.93;;;1.20;;
19347;SDS011;9810;52.480;9.806;2022-09-09T11:58:57;1.10;;;0.60;;
19347;SDS011;9810;52.480;9.806;2022-09-09T12:01:37;5.00;;;0.73;;
19347;SDS011;9810;52.480;9.806;2022-09-09T12:07:02;4.70;;;0.77;;
19347;SDS011;9810;52.480;9.806;2022-09-09T12:09:32;2.92;;;0.65;;
19347;SDS011;9810;52.480;9.806;2022-09-09T12:17:46;0.63;;;0.20;;
19347;SDS011;9810;52.480;9.806;2022-09-09T12:20:17;3.83;;;0.43;;
19347;SDS011;9810;52.480;9.806;2022-09-09T12:22:50;0.20;;;0.20;;
19347;SDS011;9810;52.480;9.806;2022-09-09T12:25:29;4.80;;;0.40;;
19347;SDS011;9810;52.480;9.806;2022-09-09T12:28:06;2.23;;;0.40;;
19347;SDS011;9810;52.480;9.806;2022-09-09T12:30:41;1.63;;;0.37;;
19347;SDS011;9810;52.480;9.806;2022-09-09T12:33:16;5.87;;;0.67;;
19347;SDS011;9810;52.480;9.806;2022-09-09T12:35:49;4.60;;;0.80;;
19347;SDS011;9810;52.480;9.806;2022-09-09T12:38:22;2.67;;;0.60;;
19347;SDS011;9810;52.480;9.806;2022-09-09T12:40:57;3.90;;;0.40;;
19347;SDS011;9810;52.480;9.806;2022-09-09T12:43:27;4.37;;;0.60;;
19347;SDS011;9810;52.480;9.806;2022-09-09T12:45:56;3.80;;;0.57;;
19347;SDS011;9810;52.480;9.806;2022-09-09T12:48:28;2.83;;;0.40;;
19347;SDS011;9810;52.480;9.806;2022-09-09T12:51:01;1.20;;;0.30;;
19347;SDS011;9810;52.480;9.806;2022-09-09T12:53:31;3.03;;;0.60;;
19347;SDS011;9810;52.480;9.806;2022-09-09T12:56:02;2.03;;;0.40;;
19347;SDS011;9810;52.480;9.806;2022-09-09T12:58:33;2.03;;;0.50;;
19347;SDS011;9810;52.480;9.806;2022-09-09T13:01:03;2.27;;;0.40;;
19347;SDS011;9810;52.480;9.806;2022-09-09T13:03:31;1.53;;;0.50;;
19347;SDS011;9810;52.480;9.806;2022-09-09T13:06:11;3.13;;;0.30;;
19347;SDS011;9810;52.480;9.806;2022-09-09T13:08:40;2.72;;;0.50;;
19347;SDS011;9810;52.480;9.806;2022-09-09T13:11:09;1.85;;;0.35;;
19347;SDS011;9810;52.480;9.806;2022-09-09T13:13:41;3.45;;;0.77;;
19347;SDS011;9810;52.480;9.806;2022-09-09T13:16:18;3.25;;;0.57;;
19347;SDS011;9810;52.480;9.806;2022-09-09T13:18:49;2.70;;;0.65;;
19347;SDS011;9810;52.480;9.806;2022-09-09T13:21:18;2.00;;;0.40;;
19347;SDS011;9810;52.480;9.806;2022-09-09T13:23:48;2.95;;;0.68;;
19347;SDS011;9810;52.480;9.806;2022-09-09T13:26:21;3.22;;;0.40;;
19347;SDS011;9810;52.480;9.806;2022-09-09T13:28:50;2.72;;;0.60;;
19347;SDS011;9810;52.480;9.806;2022-09-09T13:31:22;1.33;;;0.37;;
19347;SDS011;9810;52.480;9.806;2022-09-09T13:33:54;0.40;;;0.28;;
19347;SDS011;9810;52.480;9.806;2022-09-09T13:39:13;1.90;;;0.60;;
19347;SDS011;9810;52.480;9.806;2022-09-09T13:41:43;1.20;;;0.47;;
19347;SDS011;9810;52.480;9.806;2022-09-09T13:44:14;7.47;;;1.03;;
19347;SDS011;9810;52.480;9.806;2022-09-09T13:46:48;0.77;;;0.52;;
19347;SDS011;9810;52.480;9.806;2022-09-09T13:49:27;1.58;;;0.40;;
19347;SDS011;9810;52.480;9.806;2022-09-09T13:52:09;2.57;;;0.70;;
19347;SDS011;9810;52.480;9.806;2022-09-09T13:54:38;4.03;;;0.50;;
19347;SDS011;9810;52.480;9.806;2022-09-09T13:57:05;1.40;;;0.68;;
19347;SDS011;9810;52.480;9.806;2022-09-09T13:59:42;1.70;;;0.67;;
19347;SDS011;9810;52.480;9.806;2022-09-09T14:02:09;0.77;;;0.40;;
19347;SDS011;9810;52.480;9.806;2022-09-09T14:04:36;1.53;;;0.80;;
19347;SDS011;9810;52.480;9.806;2022-09-09T14:07:07;5.03;;;0.60;;
19347;SDS011;9810;52.480;9.806;2022-09-09T14:09:38;2.17;;;0.60;;
19347;SDS011;9810;52.480;9.806;2022-09-09T14:12:05;4.43;;;0.50;;
19347;SDS011;9810;52.480;9.806;2022-09-09T14:14:34;1.43;;;0.50;;
19347;SDS011;9810;52.480;9.806;2022-09-09T14:17:02;1.00;;;0.40;;
19347;SDS011;9810;52.480;9.806;2022-09-09T14:19:29;1.50;;;0.60;;
19347;SDS011;9810;52.480;9.806;2022-09-09T14:21:57;1.47;;;0.50;;
19347;SDS011;9810;52.480;9.806;2022-09-09T14:24:26;3.20;;;0.70;;
19347;SDS011;9810;52.480;9.806;2022-09-09T14:26:53;2.20;;;1.07;;
19347;SDS011;9810;52.480;9.806;2022-09-09T14:29:21;3.17;;;0.63;;
19347;SDS011;9810;52.480;9.806;2022-09-09T14:31:50;1.97;;;0.50;;
19347;SDS011;9810;52.480;9.806;2022-09-09T14:34:17;3.20;;;0.50;;
19347;SDS011;9810;52.480;9.806;2022-09-09T14:36:44;2.30;;;0.50;;
19347;SDS011;9810;52.480;9.806;2022-09-09T14:39:12;5.07;;;0.90;;
19347;SDS011;9810;52.480;9.806;2022-09-09T14:41:41;5.73;;;0.60;;
19347;SDS011;9810;52.480;9.806;2022-09-09T14:44:08;2.07;;;0.67;;
19347;SDS011;9810;52.480;9.806;2022-09-09T14:46:35;2.63;;;0.53;;
19347;SDS011;9810;52.480;9.806;2022-09-09T14:49:02;7.60;;;0.57;;
19347;SDS011;9810;52.480;9.806;2022-09-09T14:51:29;1.03;;;0.50;;
19347;SDS011;9810;52.480;9.806;2022-09-09T14:53:57;3.37;;;0.80;;
19347;SDS011;9810;52.480;9.806;2022-09-09T14:56:27;4.13;;;0.57;;
19347;SDS011;9810;52.480;9.806;2022-09-09T14:58:58;3.00;;;0.70;;
19347;SDS011;9810;52.480;9.806;2022-09-09T15:01:27;2.97;;;0.57;;
19347;SDS011;9810;52.480;9.806;2022-09-09T15:03:56;2.50;;;0.40;;
19347;SDS011;9810;52.480;9.806;2022-09-09T15:06:25;5.53;;;0.60;;
19347;SDS011;9810;52.480;9.806;2022-09-09T15:08:54;2.70;;;0.60;;
19347;SDS011;9810;52.480;9.806;2022-09-09T15:11:23;2.40;;;0.77;;
19347;SDS011;9810;52.480;9.806;2022-09-09T15:13:50;3.03;;;0.90;;
19347;SDS011;9810;52.480;9.806;2022-09-09T15:16:21;2.10;;;0.60;;
19347;SDS011;9810;52.480;9.806;2022-09-09T15:18:50;3.83;;;0.80;;
19347;SDS011;9810;52.480;9.806;2022-09-09T15:21:20;4.53;;;0.60;;
19347;SDS011;9810;52.480;9.806;2022-09-09T15:23:48;2.63;;;1.10;;
19347;SDS011;9810;52.480;9.806;2022-09-09T15:26:16;3.07;;;0.83;;
19347;SDS011;9810;52.480;9.806;2022-09-09T15:28:44;5.13;;;1.47;;
19347;SDS011;9810;52.480;9.806;2022-09-09T15:31:13;4.03;;;0.73;;
19347;SDS011;9810;52.480;9.806;2022-09-09T15:33:47;4.20;;;0.80;;
19347;SDS011;9810;52.480;9.806;2022-09-09T15:36:15;3.10;;;0.60;;
19347;SDS011;9810;52.480;9.806;2022-09-09T15:38:44;3.10;;;0.47;;
19347;SDS011;9810;52.480;9.806;2022-09-09T15:41:12;2.77;;;0.40;;